Missoula International Airport
KMSO : now visible

Airfield :











YOU CAN JOIN US ON...

 
LOGIN :

Register | Disclaimer

   EN    FR    IT 

 









Legend :    VFR   Marginal VFR   IFR   Intensive IFR   Very Intensive IFR
Visi :
Ceiling :
>= 8 km
>= 3000ft
5 to 8 km
1000 to 3000 ft
1500m to 5 km
500 to 1000 ft
800 to 1500m
200 to 500 ft
< 800m
< 200 ft
Symbols :   Thunderstorms  Fog  Heavy snow  Heavy precipitations  Wind > 20 kt







- Airport Elevation : 3206 ft
- IATA code : MSO


KMSO - Missoula International

CURRENT METAR :
  • 200853Z AUTO 00000KT 10SM OVC070 09/07 A2997 RMK AO2 SLP147 T00890072 51008

EXPIRED METARs :
  • 200753Z AUTO 14003KT 10SM OVC065 09/07 A2997 RMK AO2 SLP145 T00940072
  • 200653Z AUTO 14003KT 10SM OVC065 09/06 A2996 RMK AO2 SLP143 T00890061 401830072

TAF KMSO
Valid from the 20 at 06:00 until the 21 at 06:00 UTC


200520Z 2006/2106 34007KT P6SM SCT060
FM201100 VRB03KT 6SM BR VCFG SCT005 SCT050
FM201500 31005KT P6SM BKN050
FM201900 32003KT P6SM VCSH BKN050
FM210200 32003KT P6SM BKN050
No reported NOTAMs for that airfield.



MET'MAP, your aeronautical weather chart ! - Copyright ORBIFLY December 2007 - Disclaimer

ORBIFLY MET'MAP TEAM :

Programming & Development : Alexandra Zaïnal
Concept & Development : Baudouin d'Aumeries
Co-Development & Prog : Marc-Olivier Méhu
Technical & hardware support : Manuel Goepfert

Contact : metmap@orbifly.com




SOURCES & CREDITS :

   NOAA       Earth
Advisory